Time;durP1;ratioP1;P1;durP2;ratioP2;P2;SDS_P1;SDS_P2;PMS_P1;PMS_P2;Temp;Humidity;BMP_temperature;BMP_pressure;BME280_temperature;BME280_humidity;BME280_pressure;Samples;Min_cycle;Max_cycle;Signal;HPM_P1;HPM_P2
2021/12/28 00:01:41;;;;;;;;;2.33;2.33;;;;;;;;5115317;27;48093;-81
2021/12/28 00:04:07;;;;;;;;;2.00;2.00;;;;;;;;5115125;27;46254;-81
2021/12/28 00:06:32;;;;;;;;;1.50;1.50;;;;;;;;5115564;27;45566;-81
2021/12/28 00:08:57;;;;;;;;;2.00;2.00;;;;;;;;5114993;27;45483;-81
2021/12/28 00:11:23;;;;;;;;;1.00;1.00;;;;;;;;5115030;27;48288;-84
2021/12/28 00:13:48;;;;;;;;;2.00;1.00;;;;;;;;5115355;27;45881;-81
2021/12/28 00:16:29;;;;;;;;;3.00;2.00;;;;;;;;5134135;27;45631;-81
2021/12/28 00:18:54;;;;;;;;;2.00;2.00;;;;;;;;5133756;27;45291;-81
2021/12/28 00:21:19;;;;;;;;;1.00;1.00;;;;;;;;5133702;27;45479;-81
2021/12/28 00:23:45;;;;;;;;;1.00;1.00;;;;;;;;5114818;27;45283;-81
2021/12/28 00:26:11;;;;;;;;;1.67;1.00;;;;;;;;5115094;27;45453;-81
2021/12/28 00:28:37;;;;;;;;;1.00;1.00;;;;;;;;5133609;27;45440;-81
2021/12/28 00:31:03;;;;;;;;;1.50;0.75;;;;;;;;5114963;27;47053;-82
2021/12/28 00:33:28;;;;;;;;;1.50;1.25;;;;;;;;5114879;27;45555;-80
2021/12/28 00:35:54;;;;;;;;;1.00;1.00;;;;;;;;5113941;27;45478;-81
2021/12/28 00:38:22;;;;;;;;;0.75;0.75;;;;;;;;5133715;27;45461;-81
2021/12/28 00:40:52;;;;;;;;;1.00;1.00;;;;;;;;5114349;27;47864;-82
2021/12/28 00:43:18;;;;;;;;;1.00;1.00;;;;;;;;5114792;27;45926;-81
2021/12/28 00:45:43;;;;;;;;;1.00;1.00;;;;;;;;5114763;27;45353;-81
2021/12/28 00:48:08;;;;;;;;;1.00;1.00;;;;;;;;5133486;27;45486;-85
2021/12/28 00:50:34;;;;;;;;;0.00;0.00;;;;;;;;5114640;27;47159;-81
2021/12/28 00:53:00;;;;;;;;;0.00;0.00;;;;;;;;5073930;27;1145410;-81
2021/12/28 00:55:25;;;;;;;;;0.00;0.00;;;;;;;;5134901;27;45328;-82
2021/12/28 00:57:52;;;;;;;;;0.00;0.00;;;;;;;;5116046;27;45601;-81
2021/12/28 01:00:22;;;;;;;;;0.00;0.00;;;;;;;;5134534;27;45413;-82
2021/12/28 01:02:47;;;;;;;;;0.00;0.00;;;;;;;;5116497;27;45715;-83
2021/12/28 01:05:13;;;;;;;;;0.00;0.00;;;;;;;;5135064;27;45465;-81
2021/12/28 01:07:38;;;;;;;;;0.00;0.00;;;;;;;;5134635;27;45356;-82
2021/12/28 01:10:04;;;;;;;;;0.00;0.00;;;;;;;;5115505;27;46317;-85
2021/12/28 01:12:30;;;;;;;;;0.00;0.00;;;;;;;;5134615;27;45923;-83
2021/12/28 01:14:55;;;;;;;;;0.00;0.00;;;;;;;;5135300;27;45571;-85
2021/12/28 01:17:20;;;;;;;;;0.00;0.00;;;;;;;;5115734;27;45603;-81
2021/12/28 01:19:45;;;;;;;;;0.00;0.00;;;;;;;;5134501;27;46421;-86
2021/12/28 01:22:11;;;;;;;;;0.00;0.00;;;;;;;;5115929;27;45512;-81
2021/12/28 01:24:36;;;;;;;;;0.00;0.00;;;;;;;;5115472;27;45273;-83
2021/12/28 01:27:01;;;;;;;;;0.00;0.00;;;;;;;;5134434;27;45385;-82
2021/12/28 01:29:27;;;;;;;;;0.00;0.00;;;;;;;;5134478;27;45436;-84
2021/12/28 01:31:53;;;;;;;;;0.00;0.00;;;;;;;;5134072;27;45345;-85
2021/12/28 01:34:18;;;;;;;;;0.00;0.00;;;;;;;;5134173;27;45381;-83
2021/12/28 01:36:43;;;;;;;;;0.00;0.00;;;;;;;;5134065;27;45457;-81
2021/12/28 01:39:09;;;;;;;;;0.00;0.00;;;;;;;;5115098;27;48560;-85
2021/12/28 01:41:35;;;;;;;;;0.00;0.00;;;;;;;;5134289;27;45409;-82
2021/12/28 01:44:02;;;;;;;;;0.00;0.00;;;;;;;;5115585;27;45417;-82
2021/12/28 01:46:27;;;;;;;;;0.00;0.00;;;;;;;;5135857;27;45481;-83
2021/12/28 01:48:53;;;;;;;;;0.00;0.00;;;;;;;;5118924;27;47823;-82
2021/12/28 01:51:19;;;;;;;;;0.00;0.00;;;;;;;;5118952;27;45348;-84
2021/12/28 01:53:45;;;;;;;;;0.00;0.00;;;;;;;;5137740;27;45623;-82
2021/12/28 01:56:15;;;;;;;;;0.75;0.00;;;;;;;;5119044;27;45464;-82
2021/12/28 01:58:41;;;;;;;;;0.00;0.00;;;;;;;;5137530;27;45447;-81
2021/12/28 02:01:06;;;;;;;;;0.00;0.00;;;;;;;;5118885;27;45467;-81
2021/12/28 02:03:32;;;;;;;;;0.00;0.00;;;;;;;;5118999;27;45430;-82
2021/12/28 02:05:58;;;;;;;;;0.00;0.00;;;;;;;;5118622;27;45584;-82
2021/12/28 02:08:23;;;;;;;;;0.00;0.00;;;;;;;;5137064;27;46309;-80
2021/12/28 02:10:49;;;;;;;;;0.00;0.00;;;;;;;;5118795;27;45694;-81
2021/12/28 02:13:15;;;;;;;;;0.00;0.00;;;;;;;;5137183;27;45592;-81
2021/12/28 02:15:40;;;;;;;;;0.00;0.00;;;;;;;;5118730;27;45599;-81
2021/12/28 02:18:07;;;;;;;;;0.00;0.00;;;;;;;;5137311;27;46162;-81
2021/12/28 02:20:32;;;;;;;;;0.00;0.00;;;;;;;;5118514;27;45463;-81
2021/12/28 02:22:57;;;;;;;;;0.00;0.00;;;;;;;;5118601;27;45315;-82
2021/12/28 02:25:23;;;;;;;;;0.00;0.00;;;;;;;;5136946;27;45229;-80
2021/12/28 02:27:48;;;;;;;;;0.00;0.00;;;;;;;;5136957;27;46436;-81
2021/12/28 02:30:16;;;;;;;;;0.00;0.00;;;;;;;;5118155;27;45394;-81
2021/12/28 02:32:42;;;;;;;;;0.00;0.00;;;;;;;;5137063;27;45332;-82
2021/12/28 02:35:09;;;;;;;;;0.00;0.00;;;;;;;;5118491;27;45435;-81
2021/12/28 02:37:35;;;;;;;;;0.00;0.00;;;;;;;;5136961;27;45403;-80
2021/12/28 02:40:00;;;;;;;;;0.00;0.00;;;;;;;;5118051;27;45512;-81
2021/12/28 02:42:26;;;;;;;;;0.00;0.00;;;;;;;;5137270;27;45610;-81
2021/12/28 02:44:57;;;;;;;;;0.00;0.00;;;;;;;;5137036;27;45455;-81
2021/12/28 02:47:22;;;;;;;;;0.00;0.00;;;;;;;;5136570;27;46402;-81
2021/12/28 02:49:47;;;;;;;;;0.00;0.00;;;;;;;;5118077;27;45641;-81
2021/12/28 02:52:13;;;;;;;;;0.00;0.00;;;;;;;;5136961;27;45491;-81
2021/12/28 02:54:39;;;;;;;;;1.00;0.00;;;;;;;;5114030;27;45393;-81
2021/12/28 02:57:05;;;;;;;;;0.00;0.00;;;;;;;;5113736;27;47277;-81
2021/12/28 02:59:30;;;;;;;;;0.00;0.00;;;;;;;;5115386;27;45479;-81
2021/12/28 03:01:55;;;;;;;;;0.00;0.00;;;;;;;;5116018;27;45345;-84
2021/12/28 03:04:23;;;;;;;;;0.00;0.00;;;;;;;;5114476;27;45263;-84
2021/12/28 03:06:48;;;;;;;;;0.00;0.00;;;;;;;;5115532;27;45406;-83
2021/12/28 03:09:15;;;;;;;;;0.00;0.00;;;;;;;;5113816;27;45352;-85
2021/12/28 03:11:40;;;;;;;;;0.00;0.00;;;;;;;;5114292;27;45349;-81
2021/12/28 03:14:06;;;;;;;;;0.00;0.00;;;;;;;;5115776;27;45479;-82
2021/12/28 03:16:31;;;;;;;;;0.00;0.00;;;;;;;;5113879;27;47844;-84
2021/12/28 03:18:58;;;;;;;;;0.00;0.00;;;;;;;;5115581;27;45500;-82
2021/12/28 03:21:23;;;;;;;;;0.00;0.00;;;;;;;;5114277;27;45407;-81
2021/12/28 03:23:49;;;;;;;;;0.00;0.00;;;;;;;;5114894;27;45560;-82
2021/12/28 03:26:15;;;;;;;;;0.00;0.00;;;;;;;;5113600;27;46896;-82
2021/12/28 03:28:41;;;;;;;;;0.00;0.00;;;;;;;;5115481;27;45933;-83
2021/12/28 03:31:08;;;;;;;;;0.00;0.00;;;;;;;;5115761;27;45501;-83
2021/12/28 03:33:34;;;;;;;;;0.00;0.00;;;;;;;;5115119;27;45402;-82
2021/12/28 03:36:00;;;;;;;;;0.00;0.00;;;;;;;;5113853;27;47520;-81
2021/12/28 03:38:25;;;;;;;;;0.25;0.00;;;;;;;;5114749;27;45342;-84
2021/12/28 03:40:51;;;;;;;;;0.00;0.00;;;;;;;;5115495;27;45501;-81
2021/12/28 03:43:16;;;;;;;;;0.00;0.00;;;;;;;;5115612;27;45581;-84
2021/12/28 03:45:42;;;;;;;;;0.00;0.00;;;;;;;;5115172;27;46187;-84
2021/12/28 03:48:07;;;;;;;;;0.00;0.00;;;;;;;;5114779;27;45332;-83
2021/12/28 03:50:33;;;;;;;;;0.00;0.00;;;;;;;;5114950;27;45501;-81
2021/12/28 03:52:59;;;;;;;;;0.00;0.00;;;;;;;;5118636;27;45489;-84
2021/12/28 03:55:24;;;;;;;;;0.00;0.00;;;;;;;;5116464;27;48295;-82
2021/12/28 03:57:50;;;;;;;;;0.00;0.00;;;;;;;;5135831;27;45473;-81
2021/12/28 04:00:17;;;;;;;;;0.00;0.00;;;;;;;;5117291;27;45301;-82
2021/12/28 04:02:42;;;;;;;;;0.00;0.00;;;;;;;;5116930;27;45453;-85
2021/12/28 04:05:08;;;;;;;;;0.00;0.00;;;;;;;;5135498;27;46391;-81
2021/12/28 04:07:33;;;;;;;;;0.00;0.00;;;;;;;;5116693;27;45274;-84
2021/12/28 04:10:02;;;;;;;;;0.00;0.00;;;;;;;;5115603;27;45586;-81
2021/12/28 04:12:28;;;;;;;;;0.00;0.00;;;;;;;;5116890;27;45537;-84
2021/12/28 04:14:53;;;;;;;;;0.50;0.00;;;;;;;;5116821;27;48044;-81
2021/12/28 04:17:19;;;;;;;;;0.00;0.00;;;;;;;;5135371;27;45371;-82
2021/12/28 04:19:44;;;;;;;;;0.00;0.00;;;;;;;;5135509;27;45319;-81
2021/12/28 04:22:09;;;;;;;;;0.33;0.33;;;;;;;;5135349;27;45317;-81
2021/12/28 04:24:34;;;;;;;;;0.00;0.00;;;;;;;;5134860;27;45485;-81
2021/12/28 04:27:00;;;;;;;;;0.00;0.00;;;;;;;;5116307;27;46265;-81
2021/12/28 04:29:25;;;;;;;;;0.25;0.00;;;;;;;;5135560;27;45694;-81
2021/12/28 04:31:50;;;;;;;;;0.00;0.00;;;;;;;;5135288;27;45296;-81
2021/12/28 04:34:16;;;;;;;;;0.00;0.00;;;;;;;;5135425;27;46921;-81
2021/12/28 04:36:41;;;;;;;;;0.00;0.00;;;;;;;;5116090;27;45448;-81
2021/12/28 04:39:06;;;;;;;;;0.00;0.00;;;;;;;;5116078;27;45283;-81
2021/12/28 04:41:32;;;;;;;;;0.00;0.00;;;;;;;;5135245;27;45291;-81
2021/12/28 04:43:59;;;;;;;;;1.00;1.00;;;;;;;;5115974;27;47959;-81
2021/12/28 04:46:25;;;;;;;;;0.50;0.00;;;;;;;;5134818;27;45364;-81
2021/12/28 04:48:50;;;;;;;;;0.67;0.67;;;;;;;;5116319;27;45435;-81
2021/12/28 04:51:15;;;;;;;;;0.00;0.00;;;;;;;;5135217;27;45590;-81
2021/12/28 04:53:40;;;;;;;;;0.00;0.00;;;;;;;;5115129;27;47282;-81
2021/12/28 04:56:06;;;;;;;;;0.00;0.00;;;;;;;;5134939;27;45643;-81
2021/12/28 04:58:31;;;;;;;;;0.00;0.00;;;;;;;;5134938;27;45380;-80
2021/12/28 05:00:56;;;;;;;;;0.00;0.00;;;;;;;;5135113;27;45319;-81
2021/12/28 05:03:21;;;;;;;;;0.00;0.00;;;;;;;;5134986;27;45568;-81
2021/12/28 05:05:50;;;;;;;;;0.67;0.33;;;;;;;;5134627;27;45478;-81
2021/12/28 05:08:15;;;;;;;;;0.00;0.00;;;;;;;;5134710;27;45547;-80
2021/12/28 05:10:41;;;;;;;;;1.00;0.00;;;;;;;;5134595;27;45504;-82
2021/12/28 05:13:06;;;;;;;;;1.00;0.00;;;;;;;;5115895;27;47000;-83
2021/12/28 05:15:32;;;;;;;;;0.00;0.00;;;;;;;;5134668;27;45405;-81
2021/12/28 05:17:57;;;;;;;;;1.00;0.00;;;;;;;;5134703;27;45431;-81
2021/12/28 05:20:22;;;;;;;;;0.00;0.00;;;;;;;;5115893;27;45797;-81
2021/12/28 05:22:47;;;;;;;;;1.00;1.00;;;;;;;;5119047;27;47324;-82
2021/12/28 05:25:13;;;;;;;;;1.00;0.00;;;;;;;;5137667;27;45285;-82
2021/12/28 05:27:38;;;;;;;;;0.00;0.00;;;;;;;;5138207;27;45284;-82
2021/12/28 05:30:05;;;;;;;;;1.67;1.67;;;;;;;;5138209;27;45478;-86
2021/12/28 05:32:30;;;;;;;;;0.75;0.25;;;;;;;;5137636;27;46029;-82
2021/12/28 05:34:56;;;;;;;;;0.25;0.00;;;;;;;;5138302;27;45724;-82
2021/12/28 05:37:21;;;;;;;;;0.00;0.00;;;;;;;;5137954;27;45386;-81
2021/12/28 05:39:46;;;;;;;;;0.33;0.00;;;;;;;;5118735;27;45569;-81
2021/12/28 05:42:11;;;;;;;;;0.00;0.00;;;;;;;;5119293;27;47251;-84
2021/12/28 05:44:36;;;;;;;;;1.00;1.00;;;;;;;;5119022;27;45532;-81
2021/12/28 05:47:02;;;;;;;;;0.67;0.00;;;;;;;;5138156;27;45383;-81
2021/12/28 05:49:27;;;;;;;;;1.00;0.00;;;;;;;;5119113;27;45655;-85
2021/12/28 05:51:52;;;;;;;;;3.00;1.67;;;;;;;;5136986;27;46354;-84
2021/12/28 05:54:17;;;;;;;;;0.67;0.67;;;;;;;;5118259;27;45350;-85
2021/12/28 05:56:43;;;;;;;;;2.00;0.00;;;;;;;;5137291;27;45285;-84
2021/12/28 05:59:08;;;;;;;;;1.75;0.25;;;;;;;;5119204;27;45687;-84
2021/12/28 06:01:33;;;;;;;;;1.00;1.00;;;;;;;;5137528;27;45432;-82
2021/12/28 06:03:59;;;;;;;;;2.33;1.00;;;;;;;;5118724;27;45431;-85
2021/12/28 06:06:24;;;;;;;;;0.00;0.00;;;;;;;;5137461;27;45519;-82
2021/12/28 06:08:51;;;;;;;;;0.00;0.00;;;;;;;;5118289;27;45444;-82
2021/12/28 06:11:16;;;;;;;;;0.00;0.00;;;;;;;;5118274;27;47355;-81
2021/12/28 06:13:42;;;;;;;;;1.00;1.00;;;;;;;;5118597;27;45506;-81
2021/12/28 06:16:07;;;;;;;;;0.00;0.00;;;;;;;;5118586;27;45352;-82
2021/12/28 06:18:33;;;;;;;;;1.00;1.00;;;;;;;;5118485;27;45505;-84
2021/12/28 06:20:58;;;;;;;;;2.00;2.00;;;;;;;;5137033;27;46187;-83
2021/12/28 06:23:23;;;;;;;;;1.00;1.00;;;;;;;;5117850;27;45788;-85
2021/12/28 06:25:48;;;;;;;;;1.00;1.00;;;;;;;;5137053;27;45262;-81
2021/12/28 06:28:14;;;;;;;;;1.00;0.67;;;;;;;;5137001;27;45278;-85
2021/12/28 06:30:39;;;;;;;;;1.00;0.00;;;;;;;;5118154;27;48377;-82
2021/12/28 06:33:04;;;;;;;;;0.00;0.00;;;;;;;;5118547;27;45442;-80
2021/12/28 06:35:30;;;;;;;;;0.75;0.75;;;;;;;;5137027;27;45432;-81
2021/12/28 06:37:55;;;;;;;;;1.00;1.00;;;;;;;;5137124;27;45428;-83
2021/12/28 06:40:20;;;;;;;;;1.00;1.00;;;;;;;;5136499;27;46537;-83
2021/12/28 06:42:46;;;;;;;;;1.00;0.00;;;;;;;;5136960;27;45474;-81
2021/12/28 06:45:11;;;;;;;;;2.75;1.25;;;;;;;;5136913;27;45468;-81
2021/12/28 06:47:37;;;;;;;;;0.00;0.00;;;;;;;;5118049;27;46030;-85
2021/12/28 06:50:03;;;;;;;;;1.75;1.00;;;;;;;;5136644;27;46223;-81
2021/12/28 06:52:29;;;;;;;;;1.00;0.25;;;;;;;;5117862;27;45349;-81
2021/12/28 06:54:54;;;;;;;;;1.00;1.00;;;;;;;;5136332;27;45446;-81
2021/12/28 06:57:21;;;;;;;;;2.00;1.67;;;;;;;;5117907;27;45485;-81
2021/12/28 06:59:46;;;;;;;;;1.00;0.75;;;;;;;;5136447;27;45323;-82
2021/12/28 07:02:13;;;;;;;;;3.00;2.00;;;;;;;;5117662;27;45489;-81
2021/12/28 07:04:38;;;;;;;;;2.00;1.00;;;;;;;;5136572;27;45358;-81
2021/12/28 07:07:04;;;;;;;;;2.25;1.00;;;;;;;;5136597;27;45413;-81
2021/12/28 07:09:29;;;;;;;;;1.50;1.00;;;;;;;;5135885;27;46627;-81
2021/12/28 07:11:54;;;;;;;;;0.00;0.00;;;;;;;;5136541;27;45243;-81
2021/12/28 07:14:19;;;;;;;;;0.00;0.00;;;;;;;;5136671;27;45466;-81
2021/12/28 07:16:45;;;;;;;;;2.25;2.25;;;;;;;;5117665;27;45616;-81
2021/12/28 07:19:11;;;;;;;;;0.00;0.00;;;;;;;;5117388;27;47790;-81
2021/12/28 07:21:37;;;;;;;;;2.00;1.00;;;;;;;;5117393;27;45912;-82
2021/12/28 07:24:02;;;;;;;;;1.25;1.00;;;;;;;;5117486;27;45507;-85
2021/12/28 07:26:27;;;;;;;;;2.00;1.00;;;;;;;;5116925;27;45662;-83
2021/12/28 07:28:53;;;;;;;;;1.00;1.00;;;;;;;;5117723;27;48380;-83
2021/12/28 07:31:18;;;;;;;;;2.50;1.50;;;;;;;;5117556;27;45492;-86
2021/12/28 07:33:43;;;;;;;;;1.00;1.00;;;;;;;;5136085;27;45425;-82
2021/12/28 07:36:09;;;;;;;;;2.00;1.00;;;;;;;;5117594;27;45857;-85
2021/12/28 07:38:34;;;;;;;;;1.67;0.00;;;;;;;;5135502;27;47864;-86
2021/12/28 07:40:59;;;;;;;;;1.00;0.67;;;;;;;;5136004;27;45405;-86
2021/12/28 07:43:24;;;;;;;;;3.67;1.00;;;;;;;;5116615;27;45486;-86
2021/12/28 07:45:51;;;;;;;;;2.33;2.33;;;;;;;;5117302;27;45339;-83
2021/12/28 07:48:16;;;;;;;;;1.00;1.00;;;;;;;;5116861;27;47155;-81
2021/12/28 07:50:41;;;;;;;;;4.33;0.67;;;;;;;;5135975;27;45274;-83
2021/12/28 07:53:07;;;;;;;;;1.25;1.25;;;;;;;;5116538;27;45479;-85
2021/12/28 07:55:32;;;;;;;;;2.33;1.00;;;;;;;;5135509;27;45283;-82
2021/12/28 07:57:57;;;;;;;;;1.33;1.00;;;;;;;;5135616;27;45616;-82
2021/12/28 08:00:24;;;;;;;;;1.00;0.00;;;;;;;;5116679;27;45431;-83
2021/12/28 08:02:49;;;;;;;;;2.00;1.00;;;;;;;;5116881;27;45673;-82
2021/12/28 08:05:14;;;;;;;;;1.00;1.00;;;;;;;;5135606;27;45490;-86
2021/12/28 08:07:40;;;;;;;;;1.75;0.75;;;;;;;;5116305;27;48619;-82
2021/12/28 08:10:06;;;;;;;;;1.00;0.67;;;;;;;;5135403;27;45302;-85
2021/12/28 08:12:31;;;;;;;;;1.00;1.00;;;;;;;;5135260;27;45472;-82
2021/12/28 08:14:56;;;;;;;;;4.00;2.25;;;;;;;;5135553;27;45486;-83
2021/12/28 08:17:22;;;;;;;;;2.00;1.00;;;;;;;;5116179;27;47814;-85
2021/12/28 08:19:47;;;;;;;;;1.25;1.25;;;;;;;;5135040;27;45478;-82
2021/12/28 08:22:12;;;;;;;;;0.00;0.00;;;;;;;;5116824;27;45458;-82
2021/12/28 08:24:37;;;;;;;;;0.00;0.00;;;;;;;;5135019;27;45336;-84
2021/12/28 08:27:02;;;;;;;;;2.33;1.00;;;;;;;;5117119;27;47041;-82
2021/12/28 08:29:28;;;;;;;;;1.00;0.25;;;;;;;;5116300;27;45963;-84
2021/12/28 08:31:53;;;;;;;;;1.00;1.00;;;;;;;;5116565;27;45355;-82
2021/12/28 08:34:18;;;;;;;;;1.00;1.00;;;;;;;;5116635;27;45523;-83
2021/12/28 08:36:44;;;;;;;;;0.75;0.00;;;;;;;;5116240;27;47400;-82
2021/12/28 08:39:09;;;;;;;;;0.00;0.00;;;;;;;;5116143;27;45523;-82
2021/12/28 08:41:34;;;;;;;;;1.00;0.67;;;;;;;;5135362;27;45373;-84
2021/12/28 08:43:59;;;;;;;;;3.25;1.75;;;;;;;;5116476;27;45300;-84
2021/12/28 08:46:25;;;;;;;;;2.00;0.00;;;;;;;;5115905;27;48535;-86
2021/12/28 08:48:51;;;;;;;;;1.67;1.00;;;;;;;;5116473;27;46021;-82
2021/12/28 08:51:16;;;;;;;;;2.00;1.00;;;;;;;;5116285;27;45505;-82
2021/12/28 08:53:41;;;;;;;;;1.25;1.00;;;;;;;;5115134;27;45517;-85
2021/12/28 08:56:07;;;;;;;;;1.00;0.67;;;;;;;;5135941;27;46239;-84
2021/12/28 08:58:32;;;;;;;;;1.00;1.00;;;;;;;;5138619;27;45273;-85
2021/12/28 09:00:57;;;;;;;;;0.00;0.00;;;;;;;;5119841;27;45457;-83
2021/12/28 09:03:22;;;;;;;;;1.00;1.00;;;;;;;;5138185;27;45293;-82
2021/12/28 09:05:48;;;;;;;;;0.00;0.00;;;;;;;;5138569;27;46394;-81
2021/12/28 09:08:13;;;;;;;;;0.00;0.00;;;;;;;;5137886;27;45429;-82
2021/12/28 09:10:39;;;;;;;;;0.75;0.75;;;;;;;;5119832;27;45556;-82
2021/12/28 09:13:04;;;;;;;;;1.50;1.00;;;;;;;;5119682;27;45678;-82
2021/12/28 09:15:30;;;;;;;;;1.00;1.00;;;;;;;;5138078;27;45385;-81
2021/12/28 09:17:55;;;;;;;;;2.00;1.00;;;;;;;;5138170;27;45422;-81
2021/12/28 09:20:21;;;;;;;;;1.50;1.00;;;;;;;;5119695;27;45464;-82
2021/12/28 09:22:47;;;;;;;;;1.00;1.00;;;;;;;;5137505;27;45424;-81
2021/12/28 09:25:15;;;;;;;;;1.00;0.75;;;;;;;;5119482;27;47393;-81
2021/12/28 09:27:41;;;;;;;;;1.25;1.00;;;;;;;;5138296;27;45824;-82
2021/12/28 09:30:07;;;;;;;;;2.00;1.75;;;;;;;;5119260;27;45367;-81
2021/12/28 09:32:32;;;;;;;;;1.25;1.25;;;;;;;;5138120;27;45425;-85
2021/12/28 09:34:57;;;;;;;;;3.00;1.00;;;;;;;;5119303;27;48007;-84
2021/12/28 09:37:22;;;;;;;;;3.00;1.00;;;;;;;;5119086;27;45683;-81
2021/12/28 09:39:48;;;;;;;;;2.00;1.00;;;;;;;;5137552;27;45331;-81
2021/12/28 09:42:13;;;;;;;;;2.50;1.50;;;;;;;;5137608;27;45227;-81
2021/12/28 09:44:39;;;;;;;;;1.00;1.00;;;;;;;;5137767;27;45357;-83
2021/12/28 09:47:05;;;;;;;;;1.75;1.75;;;;;;;;5137723;27;45410;-81
2021/12/28 09:49:34;;;;;;;;;2.25;1.00;;;;;;;;5138341;27;45718;-84
2021/12/28 09:52:01;;;;;;;;;3.00;2.00;;;;;;;;5119142;27;45440;-81
2021/12/28 09:54:28;;;;;;;;;2.25;1.00;;;;;;;;5136778;27;46361;-85
2021/12/28 09:56:55;;;;;;;;;2.00;1.50;;;;;;;;5137964;27;45892;-81
2021/12/28 09:59:21;;;;;;;;;3.75;2.75;;;;;;;;5137779;27;45668;-83
2021/12/28 10:01:46;;;;;;;;;2.00;2.00;;;;;;;;5118801;27;45712;-82
2021/12/28 10:04:12;;;;;;;;;3.33;2.00;;;;;;;;5118852;27;47000;-81
2021/12/28 10:06:37;;;;;;;;;3.25;1.25;;;;;;;;5118185;27;45435;-81
2021/12/28 10:09:13;;;;;;;;;6.33;3.33;;;;;;;;5118471;27;45563;-84
2021/12/28 10:11:40;;;;;;;;;1.50;1.00;;;;;;;;5137293;27;45401;-80
2021/12/28 10:14:14;;;;;;;;;4.00;2.50;;;;;;;;5137708;27;45945;-81
2021/12/28 10:16:45;;;;;;;;;2.50;2.00;;;;;;;;5118597;27;45424;-82
2021/12/28 10:19:28;;;;;;;;;2.50;1.50;;;;;;;;5118879;27;45592;-84
2021/12/28 10:21:53;;;;;;;;;3.00;2.75;;;;;;;;5137371;27;45426;-82
2021/12/28 10:24:32;;;;;;;;;2.00;1.33;;;;;;;;5117914;27;47820;-81
2021/12/28 10:27:27;;;;;;;;;2.00;1.75;;;;;;;;5137861;27;45627;-81
2021/12/28 10:29:53;;;;;;;;;2.25;2.00;;;;;;;;5096248;27;45639;-81
2021/12/28 10:32:21;;;;;;;;;4.00;2.50;;;;;;;;5136902;27;45401;-81
2021/12/28 10:34:47;;;;;;;;;5.00;3.00;;;;;;;;5136858;27;46965;-81
2021/12/28 10:37:23;;;;;;;;;4.00;3.00;;;;;;;;5137020;27;45803;-84
2021/12/28 10:39:51;;;;;;;;;3.50;2.00;;;;;;;;5137031;27;45375;-87
2021/12/28 10:42:34;;;;;;;;;2.50;2.00;;;;;;;;5118309;27;45611;-81
2021/12/28 10:45:00;;;;;;;;;3.25;2.75;;;;;;;;5136806;27;45584;-82
2021/12/28 10:47:26;;;;;;;;;3.00;2.75;;;;;;;;5118058;27;45426;-82
2021/12/28 10:49:51;;;;;;;;;4.00;3.50;;;;;;;;5136800;27;45460;-83
2021/12/28 10:52:29;;;;;;;;;3.00;2.33;;;;;;;;5137042;27;45351;-85
2021/12/28 10:55:15;;;;;;;;;4.00;4.00;;;;;;;;5117137;27;46486;-86
2021/12/28 10:57:40;;;;;;;;;7.00;3.25;;;;;;;;5136914;27;45634;-82
2021/12/28 11:00:25;;;;;;;;;5.50;2.75;;;;;;;;5136815;27;45498;-82
2021/12/28 11:02:52;;;;;;;;;6.00;6.00;;;;;;;;5117867;27;45613;-84
2021/12/28 11:05:33;;;;;;;;;6.00;5.00;;;;;;;;5136449;27;45532;-85
2021/12/28 11:07:59;;;;;;;;;7.00;5.25;;;;;;;;5135643;27;45989;-82
2021/12/28 11:10:28;;;;;;;;;4.67;3.33;;;;;;;;5137124;27;45931;-82
2021/12/28 11:12:54;;;;;;;;;5.00;4.00;;;;;;;;5131479;27;45485;-86
2021/12/28 11:15:23;;;;;;;;;5.00;4.00;;;;;;;;5117551;27;47062;-84
2021/12/28 11:17:48;;;;;;;;;7.50;4.75;;;;;;;;5135982;27;45946;-83
2021/12/28 11:20:13;;;;;;;;;3.00;2.00;;;;;;;;5135859;27;45487;-86
2021/12/28 11:22:39;;;;;;;;;3.00;2.67;;;;;;;;5135887;27;45437;-84
2021/12/28 11:25:16;;;;;;;;;3.33;3.33;;;;;;;;5117366;27;47375;-82
2021/12/28 11:27:41;;;;;;;;;4.25;3.25;;;;;;;;5117571;27;45533;-81
2021/12/28 11:30:14;;;;;;;;;8.50;7.00;;;;;;;;5136165;27;45261;-81
2021/12/28 11:32:39;;;;;;;;;3.25;2.75;;;;;;;;5116889;27;45527;-83
2021/12/28 11:35:06;;;;;;;;;4.00;3.00;;;;;;;;5117214;27;46151;-82
2021/12/28 11:37:32;;;;;;;;;3.00;3.00;;;;;;;;5135942;27;45320;-81
2021/12/28 11:39:59;;;;;;;;;2.00;1.75;;;;;;;;5135605;27;45431;-81
2021/12/28 11:42:25;;;;;;;;;3.75;1.75;;;;;;;;5118396;27;45318;-81
2021/12/28 11:44:51;;;;;;;;;2.00;2.00;;;;;;;;5136155;27;45635;-85
2021/12/28 11:47:17;;;;;;;;;5.50;2.50;;;;;;;;5136199;27;45562;-82
2021/12/28 11:49:44;;;;;;;;;3.00;3.00;;;;;;;;5118175;27;45320;-82
2021/12/28 11:52:17;;;;;;;;;4.00;2.75;;;;;;;;5136184;27;45335;-81
2021/12/28 11:54:44;;;;;;;;;3.50;2.00;;;;;;;;5116335;27;47641;-85
2021/12/28 11:57:11;;;;;;;;;2.00;2.00;;;;;;;;5136125;27;45565;-85
2021/12/28 11:59:36;;;;;;;;;2.50;1.50;;;;;;;;5136034;27;45414;-85
2021/12/28 12:02:03;;;;;;;;;3.00;3.00;;;;;;;;5135673;27;45546;-86
2021/12/28 12:04:32;;;;;;;;;4.25;3.25;;;;;;;;5135536;27;46349;-83
2021/12/28 12:07:01;;;;;;;;;4.50;4.00;;;;;;;;5117102;27;45359;-87
2021/12/28 12:09:26;;;;;;;;;6.75;5.75;;;;;;;;5116705;27;45247;-85
2021/12/28 12:12:11;;;;;;;;;4.33;3.00;;;;;;;;5116994;27;45519;-85
2021/12/28 12:14:51;;;;;;;;;3.75;2.00;;;;;;;;5135429;27;47414;-84
2021/12/28 12:17:37;;;;;;;;;4.00;4.00;;;;;;;;5117008;27;45572;-86
2021/12/28 12:20:08;;;;;;;;;3.00;2.25;;;;;;;;5116736;27;45433;-85
2021/12/28 12:22:35;;;;;;;;;5.00;3.75;;;;;;;;5135367;27;45321;-87
2021/12/28 12:25:06;;;;;;;;;3.00;2.00;;;;;;;;5117751;27;47308;-85
2021/12/28 12:27:37;;;;;;;;;6.00;4.00;;;;;;;;5135451;27;45785;-85
2021/12/28 12:30:02;;;;;;;;;5.00;4.00;;;;;;;;5135200;27;45431;-83
2021/12/28 12:32:46;;;;;;;;;3.00;2.00;;;;;;;;5116275;27;45509;-81
2021/12/28 12:35:30;;;;;;;;;2.00;2.00;;;;;;;;5135146;27;45592;-86
2021/12/28 12:37:56;;;;;;;;;3.50;3.50;;;;;;;;5116318;27;46193;-86
2021/12/28 12:40:22;;;;;;;;;6.00;4.00;;;;;;;;5116632;27;45615;-83
2021/12/28 12:43:06;;;;;;;;;5.75;3.00;;;;;;;;5135212;27;45553;-87
2021/12/28 12:46:05;;;;;;;;;3.00;2.00;;;;;;;;5134935;27;45578;-83
2021/12/28 12:48:31;;;;;;;;;5.00;3.75;;;;;;;;5060608;27;45591;-83
2021/12/28 12:51:15;;;;;;;;;6.00;4.00;;;;;;;;5135004;27;45449;-85
2021/12/28 12:53:41;;;;;;;;;6.25;5.00;;;;;;;;5115758;27;45367;-85
2021/12/28 12:56:13;;;;;;;;;4.50;4.00;;;;;;;;5115736;27;48097;-86
2021/12/28 12:58:39;;;;;;;;;5.50;4.75;;;;;;;;5135038;27;45467;-83
2021/12/28 13:01:05;;;;;;;;;6.00;3.75;;;;;;;;5134917;27;45400;-82
2021/12/28 13:03:32;;;;;;;;;5.50;3.25;;;;;;;;5135416;27;45554;-82
2021/12/28 13:05:57;;;;;;;;;3.25;2.25;;;;;;;;5134738;27;46497;-85
2021/12/28 13:08:23;;;;;;;;;6.67;3.67;;;;;;;;5134014;27;45277;-85
2021/12/28 13:10:48;;;;;;;;;3.00;3.00;;;;;;;;5115948;27;45316;-82
2021/12/28 13:13:13;;;;;;;;;8.00;6.00;;;;;;;;5134891;27;45603;-85
2021/12/28 13:15:38;;;;;;;;;7.33;6.67;;;;;;;;5115975;27;46582;-85
2021/12/28 13:18:04;;;;;;;;;5.67;5.67;;;;;;;;5134566;27;45352;-85
2021/12/28 13:20:33;;;;;;;;;7.25;4.75;;;;;;;;5135215;27;45663;-83
2021/12/28 13:23:00;;;;;;;;;6.50;4.50;;;;;;;;5115671;27;45560;-82
2021/12/28 13:25:27;;;;;;;;;4.50;3.50;;;;;;;;5134385;27;45546;-86
2021/12/28 13:27:53;;;;;;;;;5.25;3.75;;;;;;;;5134446;27;45781;-83
2021/12/28 13:30:22;;;;;;;;;4.75;4.50;;;;;;;;5116023;27;45426;-86
2021/12/28 13:32:47;;;;;;;;;7.75;6.00;;;;;;;;5115796;27;45400;-80
2021/12/28 13:35:17;;;;;;;;;5.50;4.00;;;;;;;;5115652;27;47375;-82
2021/12/28 13:37:43;;;;;;;;;3.00;2.25;;;;;;;;5115357;27;45845;-84
2021/12/28 13:40:10;;;;;;;;;7.00;5.00;;;;;;;;5134576;27;45290;-82
2021/12/28 13:42:35;;;;;;;;;3.25;3.25;;;;;;;;5117732;27;45526;-82
2021/12/28 13:45:00;;;;;;;;;3.75;2.50;;;;;;;;5137397;27;47022;-86
2021/12/28 13:47:26;;;;;;;;;3.67;3.00;;;;;;;;5118963;27;46189;-83
2021/12/28 13:50:01;;;;;;;;;4.75;4.50;;;;;;;;5137759;27;45807;-80
2021/12/28 13:52:38;;;;;;;;;5.00;3.00;;;;;;;;5118541;27;45514;-81
2021/12/28 13:55:03;;;;;;;;;4.00;3.00;;;;;;;;5118921;27;47017;-84
2021/12/28 13:57:28;;;;;;;;;5.50;2.50;;;;;;;;5119063;27;45455;-85
2021/12/28 13:59:54;;;;;;;;;6.33;4.00;;;;;;;;5118933;27;45384;-84
2021/12/28 14:02:19;;;;;;;;;3.50;3.50;;;;;;;;5118962;27;45677;-82
2021/12/28 14:04:44;;;;;;;;;5.00;4.00;;;;;;;;5118556;27;48215;-82
2021/12/28 14:07:09;;;;;;;;;6.00;4.00;;;;;;;;5137057;27;45506;-80
2021/12/28 14:09:35;;;;;;;;;3.75;3.00;;;;;;;;5118329;27;45569;-84
2021/12/28 14:12:02;;;;;;;;;4.67;4.33;;;;;;;;5118636;27;45403;-81
2021/12/28 14:14:31;;;;;;;;;5.00;5.00;;;;;;;;5118481;27;48043;-83
2021/12/28 14:16:57;;;;;;;;;6.00;3.00;;;;;;;;5118606;27;45793;-82
2021/12/28 14:19:24;;;;;;;;;4.50;3.25;;;;;;;;5118588;27;45387;-81
2021/12/28 14:21:49;;;;;;;;;7.50;6.00;;;;;;;;5137359;27;45482;-82
2021/12/28 14:24:14;;;;;;;;;5.33;3.00;;;;;;;;5136453;27;46782;-83
2021/12/28 14:26:47;;;;;;;;;6.50;4.75;;;;;;;;5136854;27;45286;-82
2021/12/28 14:29:23;;;;;;;;;5.75;5.00;;;;;;;;5137709;27;45336;-82
2021/12/28 14:31:49;;;;;;;;;2.50;2.25;;;;;;;;5136764;27;45342;-83
2021/12/28 14:34:28;;;;;;;;;5.75;4.00;;;;;;;;5118136;27;48369;-82
2021/12/28 14:36:59;;;;;;;;;6.75;6.50;;;;;;;;5118220;27;45971;-84
2021/12/28 14:39:24;;;;;;;;;3.75;3.50;;;;;;;;5136523;27;45788;-83
2021/12/28 14:41:50;;;;;;;;;7.75;3.25;;;;;;;;5136839;27;45341;-82